sensor_id;sensor_type;location;lat;lon;timestamp;P1;durP1;ratioP1;P2;durP2;ratioP2
76475;SDS011;65308;50.078;14.854;2023-11-19T00:02:24;6.50;;;3.28;;
76475;SDS011;65308;50.078;14.854;2023-11-19T00:04:51;5.18;;;3.00;;
76475;SDS011;65308;50.078;14.854;2023-11-19T00:07:23;6.10;;;3.20;;
76475;SDS011;65308;50.078;14.854;2023-11-19T00:09:49;5.43;;;2.90;;
76475;SDS011;65308;50.078;14.854;2023-11-19T00:12:16;6.95;;;3.42;;
76475;SDS011;65308;50.078;14.854;2023-11-19T00:14:45;7.50;;;4.10;;
76475;SDS011;65308;50.078;14.854;2023-11-19T00:19:38;7.97;;;3.78;;
76475;SDS011;65308;50.078;14.854;2023-11-19T00:22:04;6.32;;;3.35;;
76475;SDS011;65308;50.078;14.854;2023-11-19T00:24:35;7.25;;;3.38;;
76475;SDS011;65308;50.078;14.854;2023-11-19T00:27:02;7.30;;;3.83;;
76475;SDS011;65308;50.078;14.854;2023-11-19T00:29:29;6.93;;;3.40;;
76475;SDS011;65308;50.078;14.854;2023-11-19T00:32:02;6.07;;;3.53;;
76475;SDS011;65308;50.078;14.854;2023-11-19T00:34:32;6.78;;;3.22;;
76475;SDS011;65308;50.078;14.854;2023-11-19T00:37:02;7.03;;;3.45;;
76475;SDS011;65308;50.078;14.854;2023-11-19T00:39:29;8.52;;;3.75;;
76475;SDS011;65308;50.078;14.854;2023-11-19T00:42:00;6.82;;;3.60;;
76475;SDS011;65308;50.078;14.854;2023-11-19T00:44:30;6.75;;;3.92;;
76475;SDS011;65308;50.078;14.854;2023-11-19T00:46:56;5.47;;;2.90;;
76475;SDS011;65308;50.078;14.854;2023-11-19T00:49:27;7.53;;;3.70;;
76475;SDS011;65308;50.078;14.854;2023-11-19T00:51:54;6.68;;;3.92;;
76475;SDS011;65308;50.078;14.854;2023-11-19T00:54:20;6.10;;;3.38;;
76475;SDS011;65308;50.078;14.854;2023-11-19T00:56:50;7.15;;;3.65;;
76475;SDS011;65308;50.078;14.854;2023-11-19T00:59:18;6.68;;;3.70;;
76475;SDS011;65308;50.078;14.854;2023-11-19T01:01:47;7.93;;;3.72;;
76475;SDS011;65308;50.078;14.854;2023-11-19T01:04:17;7.28;;;4.13;;
76475;SDS011;65308;50.078;14.854;2023-11-19T01:06:45;7.07;;;4.10;;
76475;SDS011;65308;50.078;14.854;2023-11-19T01:11:38;7.93;;;4.07;;
76475;SDS011;65308;50.078;14.854;2023-11-19T01:14:04;8.18;;;4.00;;
76475;SDS011;65308;50.078;14.854;2023-11-19T01:16:31;6.90;;;3.83;;
76475;SDS011;65308;50.078;14.854;2023-11-19T01:18:58;5.85;;;3.17;;
76475;SDS011;65308;50.078;14.854;2023-11-19T01:21:29;7.28;;;3.72;;
76475;SDS011;65308;50.078;14.854;2023-11-19T01:23:58;8.00;;;4.25;;
76475;SDS011;65308;50.078;14.854;2023-11-19T01:26:26;6.45;;;3.38;;
76475;SDS011;65308;50.078;14.854;2023-11-19T01:28:52;5.68;;;3.05;;
76475;SDS011;65308;50.078;14.854;2023-11-19T01:31:19;7.63;;;4.03;;
76475;SDS011;65308;50.078;14.854;2023-11-19T01:33:47;7.88;;;3.92;;
76475;SDS011;65308;50.078;14.854;2023-11-19T01:36:14;5.80;;;3.17;;
76475;SDS011;65308;50.078;14.854;2023-11-19T01:38:40;7.00;;;3.50;;
76475;SDS011;65308;50.078;14.854;2023-11-19T01:41:08;6.47;;;3.50;;
76475;SDS011;65308;50.078;14.854;2023-11-19T01:46:02;5.65;;;3.10;;
76475;SDS011;65308;50.078;14.854;2023-11-19T01:48:30;7.47;;;3.88;;
76475;SDS011;65308;50.078;14.854;2023-11-19T01:50:59;6.65;;;3.55;;
76475;SDS011;65308;50.078;14.854;2023-11-19T01:53:27;6.65;;;3.40;;
76475;SDS011;65308;50.078;14.854;2023-11-19T01:55:54;6.65;;;3.22;;
76475;SDS011;65308;50.078;14.854;2023-11-19T01:58:25;5.45;;;3.10;;
76475;SDS011;65308;50.078;14.854;2023-11-19T02:00:51;7.30;;;3.67;;
76475;SDS011;65308;50.078;14.854;2023-11-19T02:03:19;9.18;;;3.80;;
76475;SDS011;65308;50.078;14.854;2023-11-19T02:05:46;6.82;;;3.80;;
76475;SDS011;65308;50.078;14.854;2023-11-19T02:08:16;6.35;;;2.92;;
76475;SDS011;65308;50.078;14.854;2023-11-19T02:10:42;7.70;;;3.97;;
76475;SDS011;65308;50.078;14.854;2023-11-19T02:13:09;8.48;;;3.60;;
76475;SDS011;65308;50.078;14.854;2023-11-19T02:15:37;6.03;;;3.22;;
76475;SDS011;65308;50.078;14.854;2023-11-19T02:20:46;6.38;;;3.17;;
76475;SDS011;65308;50.078;14.854;2023-11-19T02:23:13;5.15;;;3.03;;
76475;SDS011;65308;50.078;14.854;2023-11-19T02:25:40;6.70;;;3.60;;
76475;SDS011;65308;50.078;14.854;2023-11-19T02:28:09;7.20;;;3.40;;
76475;SDS011;65308;50.078;14.854;2023-11-19T02:30:37;7.38;;;3.42;;
76475;SDS011;65308;50.078;14.854;2023-11-19T02:33:04;7.53;;;3.50;;
76475;SDS011;65308;50.078;14.854;2023-11-19T02:35:31;6.38;;;3.20;;
76475;SDS011;65308;50.078;14.854;2023-11-19T02:37:58;6.07;;;3.35;;
76475;SDS011;65308;50.078;14.854;2023-11-19T02:40:29;6.53;;;3.67;;
76475;SDS011;65308;50.078;14.854;2023-11-19T02:42:55;8.32;;;4.40;;
76475;SDS011;65308;50.078;14.854;2023-11-19T02:45:24;6.80;;;3.97;;
76475;SDS011;65308;50.078;14.854;2023-11-19T02:47:51;6.97;;;4.00;;
76475;SDS011;65308;50.078;14.854;2023-11-19T02:50:18;9.40;;;4.05;;
76475;SDS011;65308;50.078;14.854;2023-11-19T02:52:50;7.38;;;3.80;;
76475;SDS011;65308;50.078;14.854;2023-11-19T02:55:18;8.27;;;4.13;;
76475;SDS011;65308;50.078;14.854;2023-11-19T02:57:51;8.38;;;4.15;;
76475;SDS011;65308;50.078;14.854;2023-11-19T03:00:44;6.90;;;3.75;;
76475;SDS011;65308;50.078;14.854;2023-11-19T03:03:17;6.20;;;3.25;;
76475;SDS011;65308;50.078;14.854;2023-11-19T03:05:45;7.13;;;3.72;;
76475;SDS011;65308;50.078;14.854;2023-11-19T03:08:13;8.15;;;3.75;;
76475;SDS011;65308;50.078;14.854;2023-11-19T03:10:41;7.82;;;3.78;;
76475;SDS011;65308;50.078;14.854;2023-11-19T03:13:09;7.88;;;3.88;;
76475;SDS011;65308;50.078;14.854;2023-11-19T03:15:39;8.27;;;3.65;;
76475;SDS011;65308;50.078;14.854;2023-11-19T03:18:07;10.15;;;4.43;;
76475;SDS011;65308;50.078;14.854;2023-11-19T03:20:36;6.63;;;3.35;;
76475;SDS011;65308;50.078;14.854;2023-11-19T03:23:06;6.68;;;3.33;;
76475;SDS011;65308;50.078;14.854;2023-11-19T03:25:32;6.07;;;3.53;;
76475;SDS011;65308;50.078;14.854;2023-11-19T03:28:03;7.15;;;3.60;;
76475;SDS011;65308;50.078;14.854;2023-11-19T03:30:31;7.93;;;3.63;;
76475;SDS011;65308;50.078;14.854;2023-11-19T03:32:58;6.35;;;3.47;;
76475;SDS011;65308;50.078;14.854;2023-11-19T03:37:58;5.00;;;2.72;;
76475;SDS011;65308;50.078;14.854;2023-11-19T03:40:24;6.28;;;3.33;;
76475;SDS011;65308;50.078;14.854;2023-11-19T03:42:51;5.20;;;2.92;;
76475;SDS011;65308;50.078;14.854;2023-11-19T03:45:17;6.95;;;3.17;;
76475;SDS011;65308;50.078;14.854;2023-11-19T03:47:44;5.47;;;3.08;;
76475;SDS011;65308;50.078;14.854;2023-11-19T03:50:15;7.25;;;3.55;;
76475;SDS011;65308;50.078;14.854;2023-11-19T03:52:43;8.40;;;3.50;;
76475;SDS011;65308;50.078;14.854;2023-11-19T03:57:37;5.82;;;2.95;;
76475;SDS011;65308;50.078;14.854;2023-11-19T04:00:04;5.45;;;2.95;;
76475;SDS011;65308;50.078;14.854;2023-11-19T04:02:34;5.68;;;3.03;;
76475;SDS011;65308;50.078;14.854;2023-11-19T04:05:01;5.05;;;2.65;;
76475;SDS011;65308;50.078;14.854;2023-11-19T04:07:29;4.85;;;2.60;;
76475;SDS011;65308;50.078;14.854;2023-11-19T04:09:58;5.32;;;2.90;;
76475;SDS011;65308;50.078;14.854;2023-11-19T04:12:24;4.13;;;2.20;;
76475;SDS011;65308;50.078;14.854;2023-11-19T04:14:51;4.82;;;2.55;;
76475;SDS011;65308;50.078;14.854;2023-11-19T04:17:17;5.05;;;2.28;;
76475;SDS011;65308;50.078;14.854;2023-11-19T04:19:44;5.25;;;2.42;;
76475;SDS011;65308;50.078;14.854;2023-11-19T04:22:10;4.90;;;2.47;;
76475;SDS011;65308;50.078;14.854;2023-11-19T04:24:37;4.45;;;2.53;;
76475;SDS011;65308;50.078;14.854;2023-11-19T04:27:07;5.55;;;2.83;;
76475;SDS011;65308;50.078;14.854;2023-11-19T04:32:00;3.70;;;2.08;;
76475;SDS011;65308;50.078;14.854;2023-11-19T04:34:26;4.15;;;2.30;;
76475;SDS011;65308;50.078;14.854;2023-11-19T04:36:53;5.30;;;2.33;;
76475;SDS011;65308;50.078;14.854;2023-11-19T04:39:20;4.95;;;2.60;;
76475;SDS011;65308;50.078;14.854;2023-11-19T04:41:47;5.00;;;2.58;;
76475;SDS011;65308;50.078;14.854;2023-11-19T04:44:16;5.63;;;2.75;;
76475;SDS011;65308;50.078;14.854;2023-11-19T04:46:45;5.28;;;2.90;;
76475;SDS011;65308;50.078;14.854;2023-11-19T04:49:13;4.57;;;2.42;;
76475;SDS011;65308;50.078;14.854;2023-11-19T04:51:46;4.68;;;2.60;;
76475;SDS011;65308;50.078;14.854;2023-11-19T04:54:13;5.30;;;2.53;;
76475;SDS011;65308;50.078;14.854;2023-11-19T04:56:40;4.22;;;2.33;;
76475;SDS011;65308;50.078;14.854;2023-11-19T04:59:07;5.60;;;3.05;;
76475;SDS011;65308;50.078;14.854;2023-11-19T05:01:35;6.20;;;2.60;;
76475;SDS011;65308;50.078;14.854;2023-11-19T05:04:02;5.93;;;2.75;;
76475;SDS011;65308;50.078;14.854;2023-11-19T05:06:29;5.97;;;2.92;;
76475;SDS011;65308;50.078;14.854;2023-11-19T05:09:00;5.13;;;2.42;;
76475;SDS011;65308;50.078;14.854;2023-11-19T05:11:29;5.13;;;2.58;;
76475;SDS011;65308;50.078;14.854;2023-11-19T05:13:56;6.20;;;2.95;;
76475;SDS011;65308;50.078;14.854;2023-11-19T05:16:23;6.75;;;3.67;;
76475;SDS011;65308;50.078;14.854;2023-11-19T05:18:51;5.80;;;2.90;;
76475;SDS011;65308;50.078;14.854;2023-11-19T05:24:15;6.18;;;2.97;;
76475;SDS011;65308;50.078;14.854;2023-11-19T05:26:51;5.07;;;2.65;;
76475;SDS011;65308;50.078;14.854;2023-11-19T05:29:40;5.07;;;2.60;;
76475;SDS011;65308;50.078;14.854;2023-11-19T05:32:08;5.43;;;2.70;;
76475;SDS011;65308;50.078;14.854;2023-11-19T05:34:48;7.45;;;3.55;;
76475;SDS011;65308;50.078;14.854;2023-11-19T05:37:17;5.82;;;3.10;;
76475;SDS011;65308;50.078;14.854;2023-11-19T05:39:44;4.65;;;2.50;;
76475;SDS011;65308;50.078;14.854;2023-11-19T05:42:11;8.88;;;4.45;;
76475;SDS011;65308;50.078;14.854;2023-11-19T05:44:38;4.93;;;2.65;;
76475;SDS011;65308;50.078;14.854;2023-11-19T05:47:05;6.13;;;2.97;;
76475;SDS011;65308;50.078;14.854;2023-11-19T05:49:32;3.95;;;2.05;;
76475;SDS011;65308;50.078;14.854;2023-11-19T05:52:00;5.22;;;2.33;;
76475;SDS011;65308;50.078;14.854;2023-11-19T05:54:28;3.83;;;2.05;;
76475;SDS011;65308;50.078;14.854;2023-11-19T05:56:58;3.40;;;2.03;;
76475;SDS011;65308;50.078;14.854;2023-11-19T05:59:25;17.33;;;7.65;;
76475;SDS011;65308;50.078;14.854;2023-11-19T06:01:52;11.13;;;5.07;;
76475;SDS011;65308;50.078;14.854;2023-11-19T06:04:24;3.67;;;2.00;;
76475;SDS011;65308;50.078;14.854;2023-11-19T06:09:34;6.75;;;3.42;;
76475;SDS011;65308;50.078;14.854;2023-11-19T06:12:01;4.90;;;2.85;;
76475;SDS011;65308;50.078;14.854;2023-11-19T06:14:28;4.60;;;2.38;;
76475;SDS011;65308;50.078;14.854;2023-11-19T06:16:55;5.20;;;2.90;;
76475;SDS011;65308;50.078;14.854;2023-11-19T06:19:21;6.28;;;2.97;;
76475;SDS011;65308;50.078;14.854;2023-11-19T06:21:49;4.68;;;2.40;;
76475;SDS011;65308;50.078;14.854;2023-11-19T06:24:17;4.03;;;2.10;;
76475;SDS011;65308;50.078;14.854;2023-11-19T06:26:44;7.55;;;3.75;;
76475;SDS011;65308;50.078;14.854;2023-11-19T06:29:11;7.13;;;3.38;;
76475;SDS011;65308;50.078;14.854;2023-11-19T06:31:40;11.75;;;5.18;;
76475;SDS011;65308;50.078;14.854;2023-11-19T06:34:06;10.13;;;4.38;;
76475;SDS011;65308;50.078;14.854;2023-11-19T06:36:33;21.63;;;8.75;;
76475;SDS011;65308;50.078;14.854;2023-11-19T06:39:00;3.95;;;2.15;;
76475;SDS011;65308;50.078;14.854;2023-11-19T06:41:30;4.10;;;2.10;;
76475;SDS011;65308;50.078;14.854;2023-11-19T06:46:23;5.95;;;2.72;;
76475;SDS011;65308;50.078;14.854;2023-11-19T06:48:50;7.30;;;3.72;;
76475;SDS011;65308;50.078;14.854;2023-11-19T06:51:16;3.60;;;2.08;;
76475;SDS011;65308;50.078;14.854;2023-11-19T06:53:43;7.50;;;2.75;;
76475;SDS011;65308;50.078;14.854;2023-11-19T06:56:17;3.92;;;2.13;;
76475;SDS011;65308;50.078;14.854;2023-11-19T06:58:46;6.70;;;4.30;;
76475;SDS011;65308;50.078;14.854;2023-11-19T07:01:13;5.90;;;2.90;;
76475;SDS011;65308;50.078;14.854;2023-11-19T07:03:41;6.78;;;4.20;;
76475;SDS011;65308;50.078;14.854;2023-11-19T07:06:11;4.30;;;2.22;;
76475;SDS011;65308;50.078;14.854;2023-11-19T07:08:48;4.97;;;2.67;;
76475;SDS011;65308;50.078;14.854;2023-11-19T07:11:19;5.63;;;3.25;;
76475;SDS011;65308;50.078;14.854;2023-11-19T07:13:50;4.28;;;1.88;;
76475;SDS011;65308;50.078;14.854;2023-11-19T07:16:22;4.22;;;2.33;;
76475;SDS011;65308;50.078;14.854;2023-11-19T07:21:41;3.45;;;1.92;;
76475;SDS011;65308;50.078;14.854;2023-11-19T07:24:23;14.45;;;6.35;;
76475;SDS011;65308;50.078;14.854;2023-11-19T07:27:05;7.45;;;3.70;;
76475;SDS011;65308;50.078;14.854;2023-11-19T07:29:37;3.47;;;1.80;;
76475;SDS011;65308;50.078;14.854;2023-11-19T07:32:04;3.88;;;2.10;;
76475;SDS011;65308;50.078;14.854;2023-11-19T07:34:33;4.93;;;2.70;;
76475;SDS011;65308;50.078;14.854;2023-11-19T07:37:00;7.57;;;4.10;;
76475;SDS011;65308;50.078;14.854;2023-11-19T07:39:27;4.90;;;2.50;;
76475;SDS011;65308;50.078;14.854;2023-11-19T07:41:54;6.72;;;4.28;;
76475;SDS011;65308;50.078;14.854;2023-11-19T07:44:21;4.85;;;2.65;;
76475;SDS011;65308;50.078;14.854;2023-11-19T07:46:49;5.90;;;3.15;;
76475;SDS011;65308;50.078;14.854;2023-11-19T07:49:21;4.50;;;2.67;;
76475;SDS011;65308;50.078;14.854;2023-11-19T07:51:48;16.25;;;7.45;;
76475;SDS011;65308;50.078;14.854;2023-11-19T07:54:22;11.60;;;6.03;;
76475;SDS011;65308;50.078;14.854;2023-11-19T07:57:14;46.75;;;15.48;;
76475;SDS011;65308;50.078;14.854;2023-11-19T08:00:07;57.42;;;20.13;;
76475;SDS011;65308;50.078;14.854;2023-11-19T08:02:46;35.00;;;13.85;;
76475;SDS011;65308;50.078;14.854;2023-11-19T08:05:30;46.28;;;16.52;;
76475;SDS011;65308;50.078;14.854;2023-11-19T08:07:57;30.77;;;11.57;;
76475;SDS011;65308;50.078;14.854;2023-11-19T08:10:24;28.50;;;11.52;;
76475;SDS011;65308;50.078;14.854;2023-11-19T08:12:52;21.73;;;9.63;;
76475;SDS011;65308;50.078;14.854;2023-11-19T08:15:19;28.98;;;11.73;;
76475;SDS011;65308;50.078;14.854;2023-11-19T08:17:58;17.48;;;7.57;;
76475;SDS011;65308;50.078;14.854;2023-11-19T08:20:29;5.78;;;2.47;;
76475;SDS011;65308;50.078;14.854;2023-11-19T08:23:02;4.72;;;2.17;;
76475;SDS011;65308;50.078;14.854;2023-11-19T08:30:56;4.60;;;2.35;;
76475;SDS011;65308;50.078;14.854;2023-11-19T08:33:26;4.30;;;2.30;;
76475;SDS011;65308;50.078;14.854;2023-11-19T08:35:52;5.45;;;2.70;;
76475;SDS011;65308;50.078;14.854;2023-11-19T08:38:29;4.10;;;2.30;;
76475;SDS011;65308;50.078;14.854;2023-11-19T08:40:56;4.40;;;2.20;;
76475;SDS011;65308;50.078;14.854;2023-11-19T08:43:25;3.97;;;2.28;;
76475;SDS011;65308;50.078;14.854;2023-11-19T08:45:51;3.38;;;1.90;;
76475;SDS011;65308;50.078;14.854;2023-11-19T08:48:19;2.80;;;1.73;;
76475;SDS011;65308;50.078;14.854;2023-11-19T08:50:53;3.85;;;2.10;;
76475;SDS011;65308;50.078;14.854;2023-11-19T08:53:26;4.50;;;2.45;;
76475;SDS011;65308;50.078;14.854;2023-11-19T08:55:52;3.08;;;1.92;;
76475;SDS011;65308;50.078;14.854;2023-11-19T08:58:22;3.20;;;1.80;;
76475;SDS011;65308;50.078;14.854;2023-11-19T09:01:07;4.28;;;2.22;;
76475;SDS011;65308;50.078;14.854;2023-11-19T09:03:47;15.68;;;6.18;;
76475;SDS011;65308;50.078;14.854;2023-11-19T09:06:28;7.03;;;4.30;;
76475;SDS011;65308;50.078;14.854;2023-11-19T09:09:14;4.95;;;3.08;;
76475;SDS011;65308;50.078;14.854;2023-11-19T09:11:48;4.18;;;2.58;;
76475;SDS011;65308;50.078;14.854;2023-11-19T09:14:21;7.82;;;4.95;;
76475;SDS011;65308;50.078;14.854;2023-11-19T09:16:53;5.32;;;2.97;;
76475;SDS011;65308;50.078;14.854;2023-11-19T09:52:56;13.52;;;7.43;;
76475;SDS011;65308;50.078;14.854;2023-11-19T09:55:23;9.95;;;5.75;;
76475;SDS011;65308;50.078;14.854;2023-11-19T09:57:51;6.10;;;3.42;;
76475;SDS011;65308;50.078;14.854;2023-11-19T10:00:24;6.55;;;3.85;;
76475;SDS011;65308;50.078;14.854;2023-11-19T10:02:51;7.93;;;5.38;;
76475;SDS011;65308;50.078;14.854;2023-11-19T10:05:20;8.50;;;4.80;;
76475;SDS011;65308;50.078;14.854;2023-11-19T10:07:49;6.45;;;4.13;;
76475;SDS011;65308;50.078;14.854;2023-11-19T10:10:18;6.32;;;3.53;;
76475;SDS011;65308;50.078;14.854;2023-11-19T10:12:44;6.47;;;3.40;;
76475;SDS011;65308;50.078;14.854;2023-11-19T10:15:14;4.85;;;2.58;;
76475;SDS011;65308;50.078;14.854;2023-11-19T10:20:35;4.00;;;1.70;;
76475;SDS011;65308;50.078;14.854;2023-11-19T10:23:02;3.53;;;2.00;;
76475;SDS011;65308;50.078;14.854;2023-11-19T10:25:30;3.92;;;2.03;;
76475;SDS011;65308;50.078;14.854;2023-11-19T10:28:06;3.28;;;2.00;;
76475;SDS011;65308;50.078;14.854;2023-11-19T10:30:40;3.50;;;2.00;;
76475;SDS011;65308;50.078;14.854;2023-11-19T10:33:23;4.15;;;1.95;;
76475;SDS011;65308;50.078;14.854;2023-11-19T10:42:00;2.92;;;1.70;;
76475;SDS011;65308;50.078;14.854;2023-11-19T10:44:57;2.72;;;1.65;;
76475;SDS011;65308;50.078;14.854;2023-11-19T10:48:40;2.38;;;1.60;;
76475;SDS011;65308;50.078;14.854;2023-11-19T10:51:04;1.80;;;1.30;;
76475;SDS011;65308;50.078;14.854;2023-11-19T10:53:57;2.70;;;1.60;;
76475;SDS011;65308;50.078;14.854;2023-11-19T10:57:01;2.65;;;1.60;;
76475;SDS011;65308;50.078;14.854;2023-11-19T11:00:06;3.72;;;1.70;;
76475;SDS011;65308;50.078;14.854;2023-11-19T11:02:43;2.28;;;1.33;;
76475;SDS011;65308;50.078;14.854;2023-11-19T11:05:18;1.77;;;1.30;;
76475;SDS011;65308;50.078;14.854;2023-11-19T11:07:58;2.78;;;1.60;;
76475;SDS011;65308;50.078;14.854;2023-11-19T11:10:31;2.38;;;1.60;;
76475;SDS011;65308;50.078;14.854;2023-11-19T11:13:05;3.67;;;2.05;;
76475;SDS011;65308;50.078;14.854;2023-11-19T11:15:43;4.05;;;1.80;;
76475;SDS011;65308;50.078;14.854;2023-11-19T11:18:21;3.03;;;1.80;;
76475;SDS011;65308;50.078;14.854;2023-11-19T11:45:05;2.42;;;1.33;;
76475;SDS011;65308;50.078;14.854;2023-11-19T11:50:49;2.45;;;1.38;;
76475;SDS011;65308;50.078;14.854;2023-11-19T11:53:45;2.90;;;1.38;;
76475;SDS011;65308;50.078;14.854;2023-11-19T11:58:45;2.33;;;1.33;;
76475;SDS011;65308;50.078;14.854;2023-11-19T12:01:18;2.08;;;1.25;;
76475;SDS011;65308;50.078;14.854;2023-11-19T12:03:49;2.08;;;1.40;;
76475;SDS011;65308;50.078;14.854;2023-11-19T12:06:22;2.17;;;1.25;;
76475;SDS011;65308;50.078;14.854;2023-11-19T12:08:57;1.13;;;1.02;;
76475;SDS011;65308;50.078;14.854;2023-11-19T12:11:49;1.67;;;1.05;;
76475;SDS011;65308;50.078;14.854;2023-11-19T12:14:24;1.05;;;1.00;;
76475;SDS011;65308;50.078;14.854;2023-11-19T12:20:23;2.28;;;1.40;;
76475;SDS011;65308;50.078;14.854;2023-11-19T12:22:53;2.40;;;1.30;;
76475;SDS011;65308;50.078;14.854;2023-11-19T12:25:35;3.38;;;1.17;;
76475;SDS011;65308;50.078;14.854;2023-11-19T12:28:02;3.72;;;1.30;;
76475;SDS011;65308;50.078;14.854;2023-11-19T12:30:42;3.25;;;1.10;;
76475;SDS011;65308;50.078;14.854;2023-11-19T12:33:27;2.17;;;1.23;;
76475;SDS011;65308;50.078;14.854;2023-11-19T12:36:11;2.72;;;1.33;;
76475;SDS011;65308;50.078;14.854;2023-11-19T12:38:44;2.20;;;1.30;;
76475;SDS011;65308;50.078;14.854;2023-11-19T12:41:18;3.67;;;1.50;;
76475;SDS011;65308;50.078;14.854;2023-11-19T12:43:48;3.05;;;1.30;;
76475;SDS011;65308;50.078;14.854;2023-11-19T12:46:21;3.13;;;1.50;;
76475;SDS011;65308;50.078;14.854;2023-11-19T12:48:50;4.38;;;2.00;;
76475;SDS011;65308;50.078;14.854;2023-11-19T12:51:19;6.65;;;2.28;;
76475;SDS011;65308;50.078;14.854;2023-11-19T12:53:49;3.47;;;1.70;;
76475;SDS011;65308;50.078;14.854;2023-11-19T12:56:19;3.35;;;1.70;;
76475;SDS011;65308;50.078;14.854;2023-11-19T12:58:47;2.60;;;1.48;;
76475;SDS011;65308;50.078;14.854;2023-11-19T13:01:15;5.35;;;1.80;;
76475;SDS011;65308;50.078;14.854;2023-11-19T13:03:44;2.92;;;1.58;;
76475;SDS011;65308;50.078;14.854;2023-11-19T13:06:13;3.33;;;1.80;;
76475;SDS011;65308;50.078;14.854;2023-11-19T13:08:41;3.08;;;1.83;;
76475;SDS011;65308;50.078;14.854;2023-11-19T13:11:09;3.45;;;1.60;;
76475;SDS011;65308;50.078;14.854;2023-11-19T13:13:55;3.90;;;1.63;;
76475;SDS011;65308;50.078;14.854;2023-11-19T13:16:24;3.72;;;1.63;;
76475;SDS011;65308;50.078;14.854;2023-11-19T13:18:57;2.78;;;1.40;;
76475;SDS011;65308;50.078;14.854;2023-11-19T13:21:29;2.45;;;1.33;;
76475;SDS011;65308;50.078;14.854;2023-11-19T13:24:00;2.42;;;1.30;;
76475;SDS011;65308;50.078;14.854;2023-11-19T13:26:28;2.55;;;1.40;;
76475;SDS011;65308;50.078;14.854;2023-11-19T13:28:55;3.85;;;1.60;;
76475;SDS011;65308;50.078;14.854;2023-11-19T13:31:22;4.30;;;1.67;;
76475;SDS011;65308;50.078;14.854;2023-11-19T13:33:52;3.70;;;1.60;;
76475;SDS011;65308;50.078;14.854;2023-11-19T13:36:23;3.22;;;1.70;;
76475;SDS011;65308;50.078;14.854;2023-11-19T13:38:52;2.72;;;1.48;;
76475;SDS011;65308;50.078;14.854;2023-11-19T13:41:27;4.50;;;1.80;;
76475;SDS011;65308;50.078;14.854;2023-11-19T13:43:54;2.40;;;1.30;;
76475;SDS011;65308;50.078;14.854;2023-11-19T13:46:23;2.88;;;1.50;;
76475;SDS011;65308;50.078;14.854;2023-11-19T13:48:52;3.25;;;1.70;;
76475;SDS011;65308;50.078;14.854;2023-11-19T13:51:19;3.85;;;1.80;;
76475;SDS011;65308;50.078;14.854;2023-11-19T13:53:47;5.70;;;2.00;;
76475;SDS011;65308;50.078;14.854;2023-11-19T13:56:15;7.60;;;2.55;;
76475;SDS011;65308;50.078;14.854;2023-11-19T13:58:43;5.60;;;2.03;;
76475;SDS011;65308;50.078;14.854;2023-11-19T14:01:12;6.53;;;2.35;;
76475;SDS011;65308;50.078;14.854;2023-11-19T14:03:39;4.88;;;1.95;;
76475;SDS011;65308;50.078;14.854;2023-11-19T14:06:22;5.15;;;2.25;;
76475;SDS011;65308;50.078;14.854;2023-11-19T14:09:06;5.43;;;2.42;;
76475;SDS011;65308;50.078;14.854;2023-11-19T14:11:52;4.05;;;1.90;;
76475;SDS011;65308;50.078;14.854;2023-11-19T14:14:22;5.03;;;2.53;;
76475;SDS011;65308;50.078;14.854;2023-11-19T14:16:49;4.00;;;1.85;;
76475;SDS011;65308;50.078;14.854;2023-11-19T14:19:19;4.00;;;1.83;;
76475;SDS011;65308;50.078;14.854;2023-11-19T14:21:46;3.75;;;1.77;;
76475;SDS011;65308;50.078;14.854;2023-11-19T14:24:13;5.82;;;1.83;;
76475;SDS011;65308;50.078;14.854;2023-11-19T14:26:42;3.30;;;1.80;;
76475;SDS011;65308;50.078;14.854;2023-11-19T14:29:21;3.67;;;1.70;;
76475;SDS011;65308;50.078;14.854;2023-11-19T14:31:48;3.28;;;1.60;;
76475;SDS011;65308;50.078;14.854;2023-11-19T14:34:17;4.30;;;1.83;;
76475;SDS011;65308;50.078;14.854;2023-11-19T14:36:47;5.32;;;1.90;;
76475;SDS011;65308;50.078;14.854;2023-11-19T14:39:14;3.70;;;1.85;;
76475;SDS011;65308;50.078;14.854;2023-11-19T14:41:49;3.03;;;1.65;;
76475;SDS011;65308;50.078;14.854;2023-11-19T14:44:24;3.78;;;1.90;;
76475;SDS011;65308;50.078;14.854;2023-11-19T14:46:51;3.70;;;2.03;;
76475;SDS011;65308;50.078;14.854;2023-11-19T14:49:18;3.85;;;2.05;;
76475;SDS011;65308;50.078;14.854;2023-11-19T14:51:51;5.13;;;2.22;;
76475;SDS011;65308;50.078;14.854;2023-11-19T14:54:19;4.03;;;2.03;;
76475;SDS011;65308;50.078;14.854;2023-11-19T14:56:49;4.13;;;1.92;;
76475;SDS011;65308;50.078;14.854;2023-11-19T14:59:29;3.58;;;1.90;;
76475;SDS011;65308;50.078;14.854;2023-11-19T15:02:11;4.22;;;1.70;;
76475;SDS011;65308;50.078;14.854;2023-11-19T15:04:43;3.60;;;1.83;;
76475;SDS011;65308;50.078;14.854;2023-11-19T15:07:26;2.40;;;1.60;;
76475;SDS011;65308;50.078;14.854;2023-11-19T15:09:54;4.85;;;1.70;;
76475;SDS011;65308;50.078;14.854;2023-11-19T15:12:29;3.75;;;1.80;;
76475;SDS011;65308;50.078;14.854;2023-11-19T15:15:02;3.78;;;1.58;;
76475;SDS011;65308;50.078;14.854;2023-11-19T15:17:30;5.65;;;2.10;;
76475;SDS011;65308;50.078;14.854;2023-11-19T15:20:13;3.58;;;1.80;;
76475;SDS011;65308;50.078;14.854;2023-11-19T15:22:55;10.52;;;6.20;;
76475;SDS011;65308;50.078;14.854;2023-11-19T15:25:29;10.55;;;6.90;;
76475;SDS011;65308;50.078;14.854;2023-11-19T15:27:58;10.98;;;6.05;;
76475;SDS011;65308;50.078;14.854;2023-11-19T15:30:27;9.52;;;5.53;;
76475;SDS011;65308;50.078;14.854;2023-11-19T15:32:57;11.93;;;5.47;;
76475;SDS011;65308;50.078;14.854;2023-11-19T15:35:28;10.30;;;5.35;;
76475;SDS011;65308;50.078;14.854;2023-11-19T15:37:55;10.98;;;6.25;;
76475;SDS011;65308;50.078;14.854;2023-11-19T15:40:24;9.27;;;5.70;;
76475;SDS011;65308;50.078;14.854;2023-11-19T15:42:50;8.40;;;4.90;;
76475;SDS011;65308;50.078;14.854;2023-11-19T15:45:22;37.45;;;16.65;;
76475;SDS011;65308;50.078;14.854;2023-11-19T15:47:54;23.40;;;11.48;;
76475;SDS011;65308;50.078;14.854;2023-11-19T15:50:21;66.63;;;35.20;;
76475;SDS011;65308;50.078;14.854;2023-11-19T15:52:52;31.15;;;19.52;;
76475;SDS011;65308;50.078;14.854;2023-11-19T15:55:20;16.60;;;9.95;;
76475;SDS011;65308;50.078;14.854;2023-11-19T15:57:51;29.45;;;14.20;;
76475;SDS011;65308;50.078;14.854;2023-11-19T16:00:20;23.45;;;13.07;;
76475;SDS011;65308;50.078;14.854;2023-11-19T16:02:47;26.40;;;12.85;;
76475;SDS011;65308;50.078;14.854;2023-11-19T16:05:22;28.15;;;13.75;;
76475;SDS011;65308;50.078;14.854;2023-11-19T16:07:51;27.05;;;13.32;;
76475;SDS011;65308;50.078;14.854;2023-11-19T16:10:22;18.88;;;9.35;;
76475;SDS011;65308;50.078;14.854;2023-11-19T16:12:53;9.55;;;5.63;;
76475;SDS011;65308;50.078;14.854;2023-11-19T16:15:30;11.65;;;7.22;;
76475;SDS011;65308;50.078;14.854;2023-11-19T16:17:59;6.90;;;4.15;;
76475;SDS011;65308;50.078;14.854;2023-11-19T16:20:31;7.70;;;4.13;;
76475;SDS011;65308;50.078;14.854;2023-11-19T16:23:02;5.05;;;2.92;;
76475;SDS011;65308;50.078;14.854;2023-11-19T16:25:39;4.45;;;2.47;;
76475;SDS011;65308;50.078;14.854;2023-11-19T16:28:06;5.13;;;2.20;;
76475;SDS011;65308;50.078;14.854;2023-11-19T16:33:09;5.47;;;2.70;;
76475;SDS011;65308;50.078;14.854;2023-11-19T16:35:39;7.43;;;3.40;;
76475;SDS011;65308;50.078;14.854;2023-11-19T16:38:06;34.90;;;14.77;;
76475;SDS011;65308;50.078;14.854;2023-11-19T16:40:33;9.73;;;5.85;;
76475;SDS011;65308;50.078;14.854;2023-11-19T16:43:05;11.27;;;6.18;;
76475;SDS011;65308;50.078;14.854;2023-11-19T16:45:37;8.27;;;4.82;;
76475;SDS011;65308;50.078;14.854;2023-11-19T16:48:04;7.53;;;4.32;;